Search for airport 
image banner adimage banner adimage banner ad
image banner ad

KBTP - Butler County/K W Scholter Field

Located in Butler, United States

ICAO - BTP, IATA - BTP

Data provided by Airmate  

General information

Coordinates: N40°46'36" W79°57'4"
Elevation is 1248 feet MSL.
Magnetic variation is -08° East
View others Airports in Pennsylvania

Operational data

Special qualification required
Current time UTC:
Current local time:
Weather
METAR: KBTP 091656Z AUTO 06010KT 5SM RA BR OVC006 03/03 A2992 RMK AO2 SLP147 T00330028 PNO $
View NOTAMs / SUP AIP / TFR affecting this airport [VIEW]
Communications frequencies: [VIEW]

Runways:

RWY identifierQFULength (ft)Width (ft)SurfaceLDA (ft)
0872°4801100ASPH
26252°4801100ASPH

Airport contact information

Address: Butler United States

Other aviation service providers

Flight schools

Airquest Aviation, Lp

Airquest Aviation, Lp

High Flight Academy

High Flight Academy

Satellite view of KBTP